Portada
METAR-TAF:

METAR-TAF

Aeroports :

Ipoh, Malàisia

latitud: 04-34-09N, longitud: 101-05-35E, altitud: 40 m

Observació

L'informe es va fer fa 32 minuts, a les 03:00 UTC
Vent 6 kt del Est/Nord-Est
Temperatura 29°C
Humitat 79%
Pressió 1012 hPa
Visibilitat: 9000 m
Escasses núvols a una alçada de 2000 ft
Núvols disperses a una alçada de 14000 ft
Cel ennuvolat a una alçada de 28000 ft

METAR: WMKI 240300Z 06006KT 9000 FEW020 SCT140 BKN280 29/25 Q1012

Hora: 11:32 (03:32 UTC)

Pronòstic

L'informe es va fer fa 4 hores i 32 minuts, a les 23:00 UTC
Pronòstic vàlid del 24 a les 00 UTC al 25 a les 00 UTC
Vent 5 kt del Nord/Nord-Est
Visibilitat 10 km o més
Escasses núvols a una alçada de 2000 ft
Temporalment
l' 24 a les 10 UTC al 24 a les 15 UTC
Visibilitat: 5000 m
Escasses núvols a una alçada de 1700 ft, Cumulonimbus.
tempesta, pluja

TAF: WMKI 232300Z 2400/2500 03005KT 9999 FEW020 TEMPO 2410/2415 5000 TSRA FEW017CB

Observacions i pronòstics meteorològics de més de 4000 aeroports (METAR i TAF).

Les estacions disponibles són els punts grocs i vermells al mapa.

Posi el ratolí al punt desitjat per veure el nom de l'estació.

Feu clic per veure les observacions i els pronòstics meteorològics.

Per canviar el mapa: feu clic els botons verds amb una creu de color negre per apropar; al botó verd amb un guió per allunyar la imatge; o en les fletxes verdes per a mapes adjacents.


METAR-TAF: